• Join FlightAware (Why Join?)
  • Login
  • US Flag 
12:23AM EDT


 

Airport Tracker/Info


-or-


 

Live Flight TrackerFlight Track Log ✈ EJA700 ✈ 23-Mar-2014 ✈ KMCO - KBED

Flight Track Log - Related Links

Times and Time Zones

All times are in EDT time to prevent confusion due to time zone crossing. See the EJA700 flight status page for this flight to view local times or setup timezone preferences in your user account.

Time Position Orientation Groundspeed Altitude Reporting Facility
EDT Latitude Longitude Course Direction KTS MPH feet Rate Location/Type
05:13PM 28.4833 -81.3167 353° North 214 246 3,400  Level Orlando TRACON
05:14PM 28.5500 -81.3000 12° North 273 314 6,600 1,920 Climbing Orlando TRACON
05:16PM 28.6956 -81.3258 351° North 292 336 9,200 1,740 Climbing Jacksonville Center
05:17PM 28.7792 -81.3364 354° North 292 336 11,900 2,700 Climbing Jacksonville Center
05:18PM 28.8733 -81.3539 351° North 316 364 14,600 2,880 Climbing Jacksonville Center
05:19PM 28.9756 -81.3689 353° North 342 394 17,700 3,060 Climbing Jacksonville Center
05:20PM 29.0739 -81.3839 352° North 353 406 20,800 2,580 Climbing Jacksonville Center
05:21PM 29.1764 -81.3967 354° North 358 412 22,900 1,080 Climbing Jacksonville Center
05:22PM 29.2892 -81.4117 353° North 381 438 23,000 660 Climbing Jacksonville Center
05:23PM 29.4167 -81.4217 356° North 420 483 24,300 1,560 Climbing Jacksonville Center
05:24PM 29.5317 -81.4342 355° North 425 489 26,200 1,860 Climbing Jacksonville Center
05:25PM 29.6486 -81.4419 357° North 420 483 28,100 1,860 Climbing Jacksonville Center
05:26PM 29.7617 -81.4547 354° North 420 483 30,000 1,440 Climbing Jacksonville Center
05:27PM 29.8783 -81.4531 North 415 478 31,000 480 Climbing Jacksonville Center
05:28PM 30.0036 -81.4511 North 420 483 31,000  Level Jacksonville Center
05:29PM 30.1289 -81.4492 North 437 503 31,000  Level Jacksonville Center
05:30PM 30.2561 -81.4472 North 442 509 31,000  Level Jacksonville Center
05:31PM 30.3794 -81.4478 360° North 442 509 31,000  Level Jacksonville Center
05:32PM 30.5067 -81.4458 North 442 509 31,000 300 Level Jacksonville Center
05:33PM 30.6278 -81.4442 North 442 509 31,700 840 Climbing Jacksonville Center
05:34PM 30.7531 -81.4422 North 442 509 32,700 960 Climbing Jacksonville Center
05:35PM 30.8764 -81.4428 360° North 442 509 33,700 960 Climbing Jacksonville Center
05:36PM 30.9972 -81.4408 North 442 509 34,700 960 Climbing Jacksonville Center
05:37PM 31.1164 -81.4414 360° North 437 503 35,700 780 Climbing Jacksonville Center
05:38PM 31.2375 -81.4394 North 437 503 36,300 600 Climbing Jacksonville Center
05:39PM 31.3622 -81.4061 13° North 443 510 36,900 300 Climbing Jacksonville Center
05:40PM 31.4997 -81.3697 13° North 450 518 37,000  Climbing Jacksonville Center
05:41PM 31.6289 -81.3383 12° North 463 533 37,000  Level Jacksonville Center
05:42PM 31.7453 -81.3069 13° North 469 540 37,000  Level Jacksonville Center
05:43PM 31.8742 -81.2706 13° North 469 540 37,000  Level Jacksonville Center
05:44PM 32.0011 -81.2342 14° North 469 540 37,000  Level Jacksonville Center
05:45PM 32.1211 -81.1411 33° Northeast 479 551 37,000  Level Jacksonville Center
05:46PM 32.2444 -81.0111 42° Northeast 517 595 37,000 120 Level Jacksonville Center
05:47PM 32.3408 -80.9033 43° Northeast 534 615 37,300 360 Climbing Jacksonville Center
05:48PM 32.4475 -80.7828 44° Northeast 534 615 37,800 540 Climbing Jacksonville Center
05:49PM 32.5539 -80.6644 43° Northeast 529 609 38,400 480 Climbing Jacksonville Center
05:50PM 32.6625 -80.5433 43° Northeast 529 609 38,800 300 Climbing Jacksonville Center
05:51PM 32.7686 -80.4222 44° Northeast 524 603 39,000 60 Climbing Jacksonville Center
05:52PM 32.8789 -80.2978 43° Northeast 524 603 39,000  Level Jacksonville Center
05:53PM 33.0056 -80.1606 42° Northeast 549 632 39,000  Level Jacksonville Center
05:54PM 33.0992 -80.0508 44° Northeast 535 616 39,000  Level Jacksonville Center
05:55PM 33.2047 -79.9283 44° Northeast 535 616 39,000  Level Jacksonville Center
05:56PM 33.3247 -79.7953 43° Northeast 535 616 39,000  Level Jacksonville Center
05:57PM 33.4322 -79.6719 44° Northeast 540 621 39,000  Level Jacksonville Center
05:58PM 33.5375 -79.5461 45° Northeast 540 621 39,000  Level Jacksonville Center
05:59PM 33.6467 -79.4222 43° Northeast 540 621 39,000  Level Jacksonville Center
06:00PM 33.7356 -79.3164 45° Northeast 540 621 39,000  Level Jacksonville Center
06:01PM 33.8428 -79.1944 43° Northeast 525 604 39,000  Level Jacksonville Center
06:02PM 33.9497 -79.0697 44° Northeast 520 598 39,000  Level Jacksonville Center
06:03PM 34.1228 -78.8681 44° Northeast 503 579 39,000  Level Washington Center
06:04PM 34.2283 -78.7442 44° Northeast 509 586 39,000  Level Washington Center
06:05PM 34.3381 -78.6200 43° Northeast 516 594 39,000  Level Washington Center
06:06PM 34.4514 -78.5058 40° Northeast 521 600 39,000  Level Washington Center
06:07PM 34.5542 -78.3961 41° Northeast 528 608 39,000  Level Washington Center
06:08PM 34.6800 -78.2742 39° Northeast 528 608 39,000  Level Washington Center
06:09PM 34.7969 -78.1744 35° Northeast 528 608 39,000  Level Washington Center
06:10PM 34.9161 -78.0742 35° Northeast 522 601 39,000  Level Washington Center
06:11PM 35.0367 -77.9817 32° Northeast 517 595 39,000  Level Washington Center
06:12PM 35.1594 -77.8939 30° Northeast 506 582 39,000  Level Washington Center
06:13PM 35.2992 -77.7958 30° Northeast 506 582 39,000  Level Washington Center
06:14PM 35.4239 -77.7075 30° Northeast 516 594 39,000  Level Washington Center
06:15PM 35.5506 -77.6164 30° Northeast 516 594 39,000  Level Washington Center
06:16PM 35.6753 -77.5275 30° Northeast 516 594 39,000  Level Washington Center
06:17PM 35.7997 -77.4383 30° Northeast 516 594 39,000  Level Washington Center
06:18PM 35.9219 -77.3489 31° Northeast 516 594 39,000  Level Washington Center
06:19PM 36.0486 -77.2567 30° Northeast 516 594 39,000  Level Washington Center
06:20PM 36.1497 -77.1842 30° Northeast 516 594 39,000  Level Washington Center
06:21PM 36.2844 -77.0814 32° Northeast 516 594 39,000  Level Washington Center
06:22PM 36.4108 -76.9908 30° Northeast 516 594 39,000  Level Washington Center
06:23PM 36.5369 -76.8947 31° Northeast 516 594 39,000  Level Washington Center
06:24PM 36.6611 -76.8036 30° Northeast 516 594 39,000  Level Washington Center
06:25PM 36.7850 -76.7069 32° Northeast 522 601 39,000  Level Washington Center
06:26PM 36.9089 -76.6153 31° Northeast 517 595 39,000  Level Washington Center
06:27PM 37.0328 -76.5206 31° Northeast 517 595 39,000  Level Washington Center
06:28PM 37.1586 -76.4258 31° Northeast 517 595 39,000  Level Washington Center
06:29PM 37.2992 -76.3203 31° Northeast 525 604 39,000  Level Washington Center
06:30PM 37.4228 -76.2219 32° Northeast 525 604 39,000 -60 Level Washington Center
06:31PM 37.5419 -76.1419 28° Northeast 525 604 38,900  Descending Washington Center
06:32PM 37.6594 -76.0300 37° Northeast 525 604 39,000  Climbing Washington Center
06:33PM 37.7892 -75.8967 39° Northeast 530 610 39,000  Level Washington Center
06:34PM 37.8997 -75.7969 35° Northeast 537 618 39,000  Level Washington Center
06:35PM 38.0167 -75.6814 38° Northeast 537 618 39,000  Level Washington Center
06:36PM 38.1419 -75.5522 39° Northeast 527 606 39,000  Level Washington Center
06:37PM 38.2544 -75.4489 36° Northeast 532 612 39,000  Level Washington Center
06:38PM 38.3833 -75.3214 38° Northeast 532 612 39,000  Level Washington Center
06:39PM 38.4997 -75.2017 39° Northeast 532 612 39,000  Level Washington Center
06:40PM 38.6183 -75.0894 36° Northeast 532 612 39,000  Level Washington Center
06:41PM 38.7386 -74.9689 38° Northeast 537 618 39,000  Level Washington Center
06:42PM 38.8547 -74.8533 38° Northeast 537 618 39,000  Level Washington Center
06:43PM 38.9728 -74.7344 38° Northeast 537 618 39,000  Level Washington Center
06:44PM 39.0906 -74.6156 38° Northeast 537 618 39,000  Level Washington Center
06:45PM 39.2083 -74.4961 38° Northeast 537 618 39,000  Level Washington Center
06:46PM 39.3239 -74.3761 39° Northeast 537 618 39,000  Level Washington Center
06:47PM 39.4331 -74.2669 38° Northeast 542 624 39,000  Level Washington Center
06:49PM 39.6411 -74.0508 39° Northeast 540 621 39,000  Level Boston Center
06:50PM 39.7581 -73.9306 38° Northeast 539 620 39,000  Level Boston Center
06:51PM 39.8975 -73.7856 39° Northeast 537 618 39,000  Level Boston Center
06:52PM 40.0122 -73.6647 39° Northeast 535 616 39,000 -60 Level Boston Center
06:53PM 40.1275 -73.5506 37° Northeast 528 608 38,900 -1,320 Descending Boston Center
06:54PM 40.2447 -73.4258 39° Northeast 535 616 36,400 -2,400 Descending Boston Center
06:55PM 40.3617 -73.2986 40° Northeast 543 625 34,100 -2,280 Descending Boston Center
06:56PM 40.4828 -73.1711 39° Northeast 553 636 31,800 -2,280 Descending Boston Center
06:57PM 40.6064 -73.0397 39° Northeast 568 654 29,500 -2,460 Descending Boston Center
06:58PM 40.7494 -72.8842 39° Northeast 571 657 26,900 -2,520 Descending Boston Center
06:59PM 40.8681 -72.7592 39° Northeast 558 642 24,500 -2,340 Descending Boston Center
07:00PM 40.9861 -72.6311 39° Northeast 555 639 22,200 -2,100 Descending Boston Center
07:01PM 41.1039 -72.5025 39° Northeast 553 636 20,200 -1,020 Descending Boston Center
07:02PM 41.2375 -72.4136 27° Northeast 548 631 20,100 -60 Descending Boston Center
07:03PM 41.3958 -72.3450 18° North 535 616 20,100 -960 Level Boston Center
07:04PM 41.5319 -72.2842 18° North 505 581 18,200 -2,340 Descending Boston Center
07:05PM 41.5964 -72.2558 18° North 462 532 16,500 -2,940 Descending Boston Center
07:06PM 41.7400 -72.1942 18° North 380 437 12,400 -3,060 Descending Boston Center
07:06PM 41.7544 -72.1869 20° North 387 445 11,900 -1,260 Descending Boston Center
07:07PM 41.8475 -72.1464 18° North 349 402 11,000 -900 Descending Boston Center
07:08PM 41.9261 -72.1122 18° North 331 381 10,200 -900 Descending Boston Center
07:08PM 41.9342 -72.1081 21° North 333 383 10,100 -120 Descending Boston Center
07:09PM 42.0139 -72.0708 19° North 332 382 10,100 -120 Level Boston Center
07:10PM 42.0206 -72.0686 14° North 333 383 10,000  Descending Boston Center
07:10PM 42.0972 -72.0303 20° North 322 371 10,100 60 Climbing Boston Center
07:11PM 42.1103 -72.0208 28° Northeast 328 377 10,100 -1,680 Level Boston Center
07:11PM 42.1669 -71.9592 39° Northeast 306 352 8,400 -1,980 Descending Boston Center
07:12PM 42.1781 -71.9486 35° Northeast 312 359 8,100 -1,980 Descending Boston Center
07:13PM 42.2381 -71.8836 39° Northeast 279 321 6,000 -1,500 Descending Boston Center
07:14PM 42.2967 -71.8178 40° Northeast 257 296 5,000 -480 Descending Boston Center
07:15PM 42.3522 -71.7544 40° Northeast 260 299 5,100  Climbing Boston Center
07:16PM 42.3972 -71.6714 54° Northeast 287 330 5,100 -420 Level Boston Center
07:17PM 42.4339 -71.5831 61° Northeast 274 315 4,300 -960 Descending Boston Center
07:18PM 42.4714 -71.4897 61° Northeast 265 305 3,200 -660 Descending Boston Center
07:19PM 42.4981 -71.4050 67° East 250 288 3,000 -600 Descending Boston Center
07:20PM 42.5061 -71.3192 83° East 236 272 2,100 -660 Descending Boston Center
07:21PM 42.5067 -71.2572 89° East 160 184 1,700 -240 Descending Boston Center
07:22PM 42.5000 -71.2000 99° East 152 175 1,700  Level KA90
07:23PM 42.4667 -71.1667 144° Southeast 164 189 1,700 -180 Level KA90
07:24PM 42.4500 -71.2000 236° Southwest 129 148 1,400 -600 Descending KA90
07:25PM 42.4667 -71.2500 294° West 133 153 500 -840 Descending KA90
07:28PM 42.4667 -71.2833 285° West  Level FlightAware Approximate